Time;durP1;ratioP1;P1;durP2;ratioP2;P2;SDS_P1;SDS_P2;PMS_P1;PMS_P2;Temp;Humidity;BMP_temperature;BMP_pressure;BME280_temperature;BME280_humidity;BME280_pressure;Samples;Min_cycle;Max_cycle;Signal;HPM_P1;HPM_P2
2021/09/12 00:00:23;;;;;;;;;;;22.80;67.80;;;;;;5082316;28;20043;-62
2021/09/12 00:02:48;;;;;;;;;;;22.80;67.80;;;;;;5091352;27;19928;-61
2021/09/12 00:05:14;;;;;;;;;;;22.80;68.30;;;;;;5079434;28;20400;-61
2021/09/12 00:07:39;;;;;;;;;;;22.80;67.90;;;;;;5098328;27;19938;-62
2021/09/12 00:10:05;;;;;;;;;;;22.80;68.30;;;;;;5099258;27;19912;-61
2021/09/12 00:12:31;;;;;;;;;;;22.80;68.50;;;;;;5097703;27;19912;-62
2021/09/12 00:14:56;;;;;;;;;;;22.80;68.10;;;;;;5098113;27;19919;-61
2021/09/12 00:17:21;;;;;;;;;;;22.80;68.60;;;;;;5078912;28;20329;-62
2021/09/12 00:19:47;;;;;;;;;;;22.80;68.30;;;;;;5080384;28;19912;-61
2021/09/12 00:22:12;;;;;;;;;;;22.80;68.40;;;;;;5094936;27;19927;-60
2021/09/12 00:24:38;;;;;;;;;;;22.70;68.30;;;;;;5093051;27;19975;-62
2021/09/12 00:27:03;;;;;;;;;;;22.80;68.50;;;;;;5098154;27;20265;-60
2021/09/12 00:29:29;;;;;;;;;;;22.80;69.20;;;;;;5099684;27;19912;-60
2021/09/12 00:31:54;;;;;;;;;;;22.80;68.40;;;;;;5085875;27;19959;-60
2021/09/12 00:34:20;;;;;;;;;;;22.80;68.40;;;;;;5100026;27;20372;-61
2021/09/12 00:36:45;;;;;;;;;;;22.80;68.40;;;;;;5087361;27;19912;-60
2021/09/12 00:39:11;;;;;;;;;;;22.80;68.20;;;;;;5077397;28;19916;-62
2021/09/12 00:41:36;;;;;;;;;;;22.80;68.30;;;;;;5079909;27;19934;-62
2021/09/12 00:44:03;;;;;;;;;;;22.80;68.30;;;;;;5098340;27;20368;-62
2021/09/12 00:46:29;;;;;;;;;;;22.80;68.10;;;;;;5097443;27;19912;-62
2021/09/12 00:48:54;;;;;;;;;;;22.80;68.40;;;;;;5097774;27;19912;-61
2021/09/12 00:51:19;;;;;;;;;;;22.80;68.30;;;;;;5099000;27;19919;-62
2021/09/12 00:53:45;;;;;;;;;;;22.80;68.50;;;;;;5093961;27;19913;-63
2021/09/12 00:56:10;;;;;;;;;;;22.80;68.50;;;;;;5095307;27;20395;-62
2021/09/12 00:58:36;;;;;;;;;;;22.70;68.40;;;;;;5084059;27;20003;-61
2021/09/12 01:01:02;;;;;;;;;;;22.70;68.20;;;;;;5100677;27;19919;-62
2021/09/12 01:03:27;;;;;;;;;;;22.70;68.80;;;;;;5101200;27;20291;-63
2021/09/12 01:05:53;;;;;;;;;;;22.70;68.70;;;;;;5095826;27;19916;-61
2021/09/12 01:08:19;;;;;;;;;;;22.70;68.50;;;;;;5087820;28;20675;-62
2021/09/12 01:10:44;;;;;;;;;;;22.70;68.60;;;;;;5082389;28;19927;-62
2021/09/12 01:13:10;;;;;;;;;;;22.70;68.50;;;;;;5086408;27;20006;-61
2021/09/12 01:15:35;;;;;;;;;;;22.80;68.50;;;;;;5101358;27;19912;-61
2021/09/12 01:18:01;;;;;;;;;;;22.80;68.40;;;;;;5101807;27;19911;-62
2021/09/12 01:20:26;;;;;;;;;;;22.80;68.40;;;;;;5101356;27;20349;-62
2021/09/12 01:22:52;;;;;;;;;;;22.80;68.50;;;;;;5102435;27;19923;-62
2021/09/12 01:25:17;;;;;;;;;;;22.80;68.30;;;;;;5102346;27;19930;-62
2021/09/12 01:27:42;;;;;;;;;;;22.80;68.30;;;;;;5100834;27;19950;-61
2021/09/12 01:30:08;;;;;;;;;;;22.80;68.30;;;;;;5101553;27;20002;-62
2021/09/12 01:32:34;;;;;;;;;;;22.90;68.50;;;;;;5086759;27;20369;-61
2021/09/12 01:34:59;;;;;;;;;;;22.90;68.30;;;;;;5082509;28;19912;-60
2021/09/12 01:37:25;;;;;;;;;;;22.90;68.10;;;;;;5078453;28;20373;-61
2021/09/12 01:39:50;;;;;;;;;;;22.90;68.00;;;;;;5080119;28;20035;-60
2021/09/12 01:42:15;;;;;;;;;;;22.80;68.40;;;;;;5084201;28;19916;-62
2021/09/12 01:44:45;;;;;;;;;;;22.80;68.40;;;;;;5101420;27;19912;-61
2021/09/12 01:47:10;;;;;;;;;;;22.80;68.40;;;;;;5101752;27;19978;-61
2021/09/12 01:49:35;;;;;;;;;;;22.80;68.50;;;;;;5101306;27;19965;-61
2021/09/12 01:52:01;;;;;;;;;;;22.70;68.50;;;;;;5083921;27;19935;-60
2021/09/12 01:54:26;;;;;;;;;;;22.80;68.60;;;;;;5080845;28;19912;-62
2021/09/12 01:56:52;;;;;;;;;;;22.80;68.70;;;;;;5094313;27;19916;-60
2021/09/12 01:59:17;;;;;;;;;;;22.80;68.80;;;;;;5083338;28;19912;-61
2021/09/12 02:01:43;;;;;;;;;;;22.80;68.50;;;;;;5080676;28;19978;-61
2021/09/12 02:04:08;;;;;;;;;;;22.80;68.30;;;;;;5079918;28;19969;-61
2021/09/12 02:06:34;;;;;;;;;;;22.80;68.20;;;;;;5080755;28;19912;-62
2021/09/12 02:08:59;;;;;;;;;;;22.80;68.30;;;;;;5080014;28;19927;-63
2021/09/12 02:11:24;;;;;;;;;;;22.80;68.50;;;;;;5080407;28;19997;-59
2021/09/12 02:13:50;;;;;;;;;;;22.70;68.40;;;;;;5080136;28;19912;-61
2021/09/12 02:16:17;;;;;;;;;;;22.70;68.50;;;;;;5080059;28;19912;-61
2021/09/12 02:18:42;;;;;;;;;;;22.70;68.80;;;;;;5079675;28;19912;-61
2021/09/12 02:21:08;;;;;;;;;;;22.70;68.50;;;;;;5081354;28;19936;-60
2021/09/12 02:23:33;;;;;;;;;;;22.80;68.40;;;;;;5079823;28;20405;-61
2021/09/12 02:25:59;;;;;;;;;;;22.80;68.50;;;;;;5082053;28;19972;-61
2021/09/12 02:28:24;;;;;;;;;;;22.70;68.70;;;;;;5082854;28;19912;-62
2021/09/12 02:30:49;;;;;;;;;;;22.70;68.70;;;;;;5081300;28;19916;-60
2021/09/12 02:33:15;;;;;;;;;;;22.80;68.40;;;;;;5080038;28;20373;-61
2021/09/12 02:35:40;;;;;;;;;;;22.80;68.30;;;;;;5080942;28;19918;-62
2021/09/12 02:38:06;;;;;;;;;;;22.80;68.50;;;;;;5083754;27;19916;-62
2021/09/12 02:40:31;;;;;;;;;;;22.80;69.00;;;;;;5081454;27;20584;-62
2021/09/12 02:42:57;;;;;;;;;;;22.80;68.50;;;;;;5089309;27;19938;-62
2021/09/12 02:45:22;;;;;;;;;;;22.80;68.40;;;;;;5100334;27;20051;-62
2021/09/12 02:47:48;;;;;;;;;;;22.70;68.30;;;;;;5100746;27;19919;-61
2021/09/12 02:50:13;;;;;;;;;;;22.70;68.50;;;;;;5098404;27;20345;-61
2021/09/12 02:52:38;;;;;;;;;;;22.80;68.50;;;;;;5099246;27;19919;-62
2021/09/12 02:55:04;;;;;;;;;;;22.80;68.70;;;;;;5100601;27;19912;-62
2021/09/12 02:57:30;;;;;;;;;;;22.80;68.50;;;;;;5100265;27;20007;-62
2021/09/12 02:59:56;;;;;;;;;;;22.80;68.30;;;;;;5099934;27;19919;-60
2021/09/12 03:02:21;;;;;;;;;;;22.80;68.10;;;;;;5099344;27;19916;-61
2021/09/12 03:04:47;;;;;;;;;;;22.70;68.50;;;;;;5099704;27;20216;-61
2021/09/12 03:07:12;;;;;;;;;;;22.80;68.70;;;;;;5099673;27;19960;-62
2021/09/12 03:09:38;;;;;;;;;;;22.80;68.40;;;;;;5099387;27;19912;-62
2021/09/12 03:12:03;;;;;;;;;;;22.90;68.40;;;;;;5099836;27;19912;-61
2021/09/12 03:14:29;;;;;;;;;;;22.80;68.40;;;;;;5097612;27;20478;-62
2021/09/12 03:16:54;;;;;;;;;;;22.80;68.60;;;;;;5079609;28;20469;-62
2021/09/12 03:19:20;;;;;;;;;;;22.80;68.50;;;;;;5078389;28;19912;-62
2021/09/12 03:21:45;;;;;;;;;;;22.80;68.20;;;;;;5079061;28;19920;-63
2021/09/12 03:24:11;;;;;;;;;;;22.80;68.50;;;;;;5079213;28;20569;-62
2021/09/12 03:26:36;;;;;;;;;;;22.80;68.20;;;;;;5078909;28;19916;-62
2021/09/12 03:29:02;;;;;;;;;;;22.70;68.50;;;;;;5077354;28;19919;-62
2021/09/12 03:31:27;;;;;;;;;;;22.80;68.70;;;;;;5077850;28;19916;-62
2021/09/12 03:33:53;;;;;;;;;;;22.80;68.40;;;;;;5079841;28;19927;-61
2021/09/12 03:36:18;;;;;;;;;;;22.70;68.50;;;;;;5080086;28;20006;-61
2021/09/12 03:38:43;;;;;;;;;;;22.70;68.80;;;;;;5078473;28;19912;-60
2021/09/12 03:41:09;;;;;;;;;;;22.80;69.00;;;;;;5079212;28;19920;-62
2021/09/12 03:43:34;;;;;;;;;;;22.80;68.60;;;;;;5092674;27;19972;-62
2021/09/12 03:46:00;;;;;;;;;;;22.80;68.50;;;;;;5096159;27;19919;-62
2021/09/12 03:48:25;;;;;;;;;;;22.80;68.50;;;;;;5077979;28;20178;-61
2021/09/12 03:50:51;;;;;;;;;;;22.90;68.40;;;;;;5079866;28;19912;-62
2021/09/12 03:53:16;;;;;;;;;;;22.90;68.60;;;;;;5077743;28;20023;-61
2021/09/12 03:55:42;;;;;;;;;;;22.80;68.50;;;;;;5079080;28;20426;-62
2021/09/12 03:58:08;;;;;;;;;;;22.80;68.30;;;;;;5078321;28;20570;-62
2021/09/12 04:00:33;;;;;;;;;;;22.80;68.70;;;;;;5098650;27;20157;-61
2021/09/12 04:02:59;;;;;;;;;;;22.70;68.60;;;;;;5094233;27;19917;-62
2021/09/12 04:05:24;;;;;;;;;;;22.80;68.50;;;;;;5079780;28;19917;-61
2021/09/12 04:07:49;;;;;;;;;;;22.70;68.60;;;;;;5078420;28;19920;-62
2021/09/12 04:10:15;;;;;;;;;;;22.70;68.80;;;;;;5078714;28;20391;-61
2021/09/12 04:12:40;;;;;;;;;;;22.70;68.90;;;;;;5080351;28;19916;-61
2021/09/12 04:15:06;;;;;;;;;;;22.70;68.80;;;;;;5094512;27;19968;-62
2021/09/12 04:17:31;;;;;;;;;;;22.70;68.70;;;;;;5090235;27;19955;-62
2021/09/12 04:19:57;;;;;;;;;;;22.70;68.50;;;;;;5098734;27;19981;-62
2021/09/12 04:22:22;;;;;;;;;;;22.70;68.60;;;;;;5098880;27;19926;-62
2021/09/12 04:24:48;;;;;;;;;;;22.70;68.50;;;;;;5096290;27;20372;-62
2021/09/12 04:27:15;;;;;;;;;;;22.70;68.60;;;;;;5078989;28;19920;-61
2021/09/12 04:29:41;;;;;;;;;;;22.70;68.80;;;;;;5081641;28;19919;-61
2021/09/12 04:32:07;;;;;;;;;;;22.70;68.80;;;;;;5082269;28;19954;-62
2021/09/12 04:34:32;;;;;;;;;;;22.70;68.50;;;;;;5082501;28;19940;-62
2021/09/12 04:36:58;;;;;;;;;;;22.70;68.50;;;;;;5081499;28;19912;-62
2021/09/12 04:39:23;;;;;;;;;;;22.70;68.70;;;;;;5098792;27;19916;-61
2021/09/12 04:41:48;;;;;;;;;;;22.70;68.80;;;;;;5090644;28;19931;-62
2021/09/12 04:44:14;;;;;;;;;;;22.70;68.40;;;;;;5102345;27;19916;-61
2021/09/12 04:46:39;;;;;;;;;;;22.80;68.80;;;;;;5102963;27;20284;-61
2021/09/12 04:49:05;;;;;;;;;;;22.70;68.40;;;;;;5099774;27;19981;-61
2021/09/12 04:51:30;;;;;;;;;;;22.70;68.70;;;;;;5082851;28;19922;-62
2021/09/12 04:53:56;;;;;;;;;;;22.70;68.90;;;;;;5081944;28;19912;-61
2021/09/12 04:56:24;;;;;;;;;;;22.70;68.50;;;;;;5082461;28;20441;-61
2021/09/12 04:58:49;;;;;;;;;;;22.70;68.60;;;;;;5081565;28;19965;-62
2021/09/12 05:01:15;;;;;;;;;;;22.70;68.50;;;;;;5083103;28;19915;-61
2021/09/12 05:03:40;;;;;;;;;;;22.70;68.50;;;;;;5083883;28;19920;-60
2021/09/12 05:06:06;;;;;;;;;;;22.80;68.60;;;;;;5103224;27;19950;-61
2021/09/12 05:08:31;;;;;;;;;;;22.70;68.40;;;;;;5084389;28;20662;-60
2021/09/12 05:10:57;;;;;;;;;;;22.70;68.70;;;;;;5082709;28;19923;-61
2021/09/12 05:13:22;;;;;;;;;;;22.70;68.50;;;;;;5082766;28;19912;-61
2021/09/12 05:15:47;;;;;;;;;;;22.70;68.60;;;;;;5102382;27;19912;-62
2021/09/12 05:18:13;;;;;;;;;;;22.70;68.50;;;;;;5101953;27;20385;-61
2021/09/12 05:20:38;;;;;;;;;;;22.70;68.30;;;;;;5089938;27;19912;-62
2021/09/12 05:23:04;;;;;;;;;;;22.70;68.60;;;;;;5102009;27;19916;-60
2021/09/12 05:25:30;;;;;;;;;;;22.70;68.40;;;;;;5093350;27;19919;-60
2021/09/12 05:27:55;;;;;;;;;;;22.60;68.50;;;;;;5101954;27;19916;-61
2021/09/12 05:30:20;;;;;;;;;;;22.60;68.60;;;;;;5100034;28;20348;-61
2021/09/12 05:32:47;;;;;;;;;;;22.60;68.70;;;;;;5101894;27;19924;-61
2021/09/12 05:35:13;;;;;;;;;;;22.70;69.00;;;;;;5082990;27;19912;-61
2021/09/12 05:37:38;;;;;;;;;;;22.70;68.60;;;;;;5093680;27;20250;-61
2021/09/12 05:40:04;;;;;;;;;;;22.70;69.00;;;;;;5090360;27;19916;-61
2021/09/12 05:42:29;;;;;;;;;;;22.80;69.10;;;;;;5097054;22;20035;-57
2021/09/12 05:44:55;;;;;;;;;;;22.70;69.20;;;;;;5087631;27;20376;-60
2021/09/12 05:47:20;;;;;;;;;;;22.70;69.40;;;;;;5081501;28;19984;-59
2021/09/12 05:49:46;;;;;;;;;;;22.70;69.50;;;;;;5100948;27;19926;-60
2021/09/12 05:52:11;;;;;;;;;;;22.70;69.60;;;;;;5096263;27;20311;-60
2021/09/12 05:54:37;;;;;;;;;;;22.70;69.50;;;;;;5086461;27;19912;-61
2021/09/12 05:57:02;;;;;;;;;;;22.70;69.40;;;;;;5083028;27;19916;-60
2021/09/12 05:59:27;;;;;;;;;;;22.70;69.40;;;;;;5100824;27;20049;-60
2021/09/12 06:01:53;;;;;;;;;;;22.70;69.40;;;;;;5097397;27;19972;-61
2021/09/12 06:04:18;;;;;;;;;;;22.70;69.10;;;;;;5085523;27;19919;-61
2021/09/12 06:06:44;;;;;;;;;;;22.60;69.10;;;;;;5091979;27;20108;-59
2021/09/12 06:09:09;;;;;;;;;;;22.70;69.10;;;;;;5100709;27;20284;-60
2021/09/12 06:11:35;;;;;;;;;;;22.70;69.10;;;;;;5096412;27;19919;-60
2021/09/12 06:14:00;;;;;;;;;;;22.70;69.00;;;;;;5092917;27;19916;-59
2021/09/12 06:16:26;;;;;;;;;;;22.70;68.80;;;;;;5080299;28;20330;-59
2021/09/12 06:18:51;;;;;;;;;;;22.70;68.90;;;;;;5077712;28;19916;-59
2021/09/12 06:21:17;;;;;;;;;;;22.70;69.20;;;;;;5092196;28;20069;-60
2021/09/12 06:23:42;;;;;;;;;;;22.70;68.50;;;;;;5087427;27;19923;-61
2021/09/12 06:26:07;;;;;;;;;;;22.70;68.50;;;;;;5079680;28;19918;-61
2021/09/12 06:28:33;;;;;;;;;;;22.70;68.60;;;;;;5079529;28;19912;-60
2021/09/12 06:30:59;;;;;;;;;;;22.70;68.40;;;;;;5087903;27;19915;-59
2021/09/12 06:33:25;;;;;;;;;;;22.70;68.50;;;;;;5085511;27;20006;-61
2021/09/12 06:35:50;;;;;;;;;;;22.70;68.40;;;;;;5093304;27;19916;-61
2021/09/12 06:38:16;;;;;;;;;;;22.70;68.40;;;;;;5080043;28;20381;-61
2021/09/12 06:40:41;;;;;;;;;;;22.70;68.30;;;;;;5086228;27;19951;-62
2021/09/12 06:43:06;;;;;;;;;;;22.70;68.40;;;;;;5089276;27;19927;-61
2021/09/12 06:45:32;;;;;;;;;;;22.60;68.50;;;;;;5092036;28;19961;-61
2021/09/12 06:47:57;;;;;;;;;;;22.60;68.40;;;;;;5083558;27;20531;-60
2021/09/12 06:50:23;;;;;;;;;;;22.70;68.50;;;;;;5085453;27;19970;-61
2021/09/12 06:52:49;;;;;;;;;;;22.60;69.00;;;;;;5083117;28;19939;-59
2021/09/12 06:55:14;;;;;;;;;;;22.70;69.50;;;;;;5091010;27;20288;-61
2021/09/12 06:57:40;;;;;;;;;;;22.60;69.30;;;;;;5094129;27;20226;-61
2021/09/12 07:00:06;;;;;;;;;;;22.60;69.50;;;;;;5097316;27;19915;-61
2021/09/12 07:02:31;;;;;;;;;;;22.60;69.70;;;;;;5100086;27;20294;-61
2021/09/12 07:04:56;;;;;;;;;;;22.60;69.60;;;;;;5094031;27;19938;-60
2021/09/12 07:07:22;;;;;;;;;;;22.60;69.80;;;;;;5082375;27;19912;-61
2021/09/12 07:09:47;;;;;;;;;;;22.60;70.10;;;;;;5087685;27;19912;-61
2021/09/12 07:12:13;;;;;;;;;;;22.60;69.70;;;;;;5096720;27;20768;-61
2021/09/12 07:14:38;;;;;;;;;;;22.60;69.80;;;;;;5087765;27;20051;-61
2021/09/12 07:17:04;;;;;;;;;;;22.60;69.90;;;;;;5090441;27;19959;-61
2021/09/12 07:19:29;;;;;;;;;;;22.60;69.40;;;;;;5097250;27;20045;-61
2021/09/12 07:21:55;;;;;;;;;;;22.60;69.40;;;;;;5096701;27;19926;-61
2021/09/12 07:24:20;;;;;;;;;;;22.60;69.00;;;;;;5084115;27;20369;-62
2021/09/12 07:26:46;;;;;;;;;;;22.60;68.70;;;;;;5093682;27;19920;-61
2021/09/12 07:29:11;;;;;;;;;;;22.60;68.70;;;;;;5090130;27;19912;-61
2021/09/12 07:31:36;;;;;;;;;;;22.60;68.60;;;;;;5099175;27;19957;-61
2021/09/12 07:34:04;;;;;;;;;;;22.60;68.40;;;;;;5098087;27;20380;-61
2021/09/12 07:36:29;;;;;;;;;;;22.50;68.10;;;;;;5089080;27;19934;-60
2021/09/12 07:38:55;;;;;;;;;;;22.50;68.00;;;;;;5083388;27;20349;-61
2021/09/12 07:41:20;;;;;;;;;;;22.50;68.20;;;;;;5088189;27;20000;-61
2021/09/12 07:43:46;;;;;;;;;;;22.50;68.70;;;;;;5077921;28;19944;-61
2021/09/12 07:46:11;;;;;;;;;;;22.50;68.70;;;;;;5079453;28;19955;-61
2021/09/12 07:48:36;;;;;;;;;;;22.50;68.80;;;;;;5094015;27;19934;-61
2021/09/12 07:51:02;;;;;;;;;;;22.50;69.00;;;;;;5098283;27;19965;-59
2021/09/12 07:53:28;;;;;;;;;;;22.40;68.80;;;;;;5094233;27;19911;-56
2021/09/12 07:55:54;;;;;;;;;;;22.40;68.50;;;;;;5091801;27;19921;-61
2021/09/12 07:58:19;;;;;;;;;;;22.40;68.30;;;;;;5086661;27;19936;-61
2021/09/12 08:00:45;;;;;;;;;;;22.40;68.10;;;;;;5079930;28;19916;-59
2021/09/12 08:03:10;;;;;;;;;;;22.40;68.30;;;;;;5087911;27;19919;-61
2021/09/12 08:05:35;;;;;;;;;;;22.40;68.10;;;;;;5087284;27;20587;-61
2021/09/12 08:08:01;;;;;;;;;;;22.40;68.10;;;;;;5082721;27;19927;-61
2021/09/12 08:10:26;;;;;;;;;;;22.40;68.40;;;;;;5081375;27;19970;-61
2021/09/12 08:12:52;;;;;;;;;;;22.30;68.40;;;;;;5084415;27;19923;-60
2021/09/12 08:15:17;;;;;;;;;;;22.40;68.80;;;;;;5090929;27;20277;-61
2021/09/12 08:17:43;;;;;;;;;;;22.40;69.40;;;;;;5099722;27;19916;-60
2021/09/12 08:20:09;;;;;;;;;;;22.30;68.80;;;;;;5088445;27;20361;-60
2021/09/12 08:22:34;;;;;;;;;;;22.40;68.90;;;;;;5094585;27;19916;-61
2021/09/12 08:24:59;;;;;;;;;;;22.40;68.80;;;;;;5081794;27;19984;-61
2021/09/12 08:27:25;;;;;;;;;;;22.40;68.70;;;;;;5084350;27;19913;-61
2021/09/12 08:29:50;;;;;;;;;;;22.40;68.60;;;;;;5095321;27;19916;-62
2021/09/12 08:32:16;;;;;;;;;;;22.40;68.50;;;;;;5078774;28;19912;-61
2021/09/12 08:34:41;;;;;;;;;;;22.30;68.90;;;;;;5090814;27;19919;-61
2021/09/12 08:37:07;;;;;;;;;;;22.30;68.70;;;;;;5094200;27;19923;-61
2021/09/12 08:39:32;;;;;;;;;;;22.30;68.80;;;;;;5089044;27;20253;-60
2021/09/12 08:41:58;;;;;;;;;;;22.30;68.40;;;;;;5075786;28;19928;-54
2021/09/12 08:44:24;;;;;;;;;;;22.30;69.70;;;;;;5088372;27;20377;-60
2021/09/12 08:46:49;;;;;;;;;;;22.30;69.30;;;;;;5099960;27;19912;-59
2021/09/12 08:49:14;;;;;;;;;;;22.30;69.20;;;;;;5089759;27;19912;-59
2021/09/12 08:51:40;;;;;;;;;;;22.30;69.10;;;;;;5093842;27;19964;-61
2021/09/12 08:54:06;;;;;;;;;;;22.30;68.90;;;;;;5089438;27;19911;-60
2021/09/12 08:56:31;;;;;;;;;;;22.30;69.00;;;;;;5083233;27;19922;-59
2021/09/12 08:58:57;;;;;;;;;;;22.30;68.30;;;;;;5078836;28;20663;-60
2021/09/12 09:01:32;;;;;;;;;;;22.30;68.30;;;;;;5085923;27;19911;-61
2021/09/12 09:04:01;;;;;;;;;;;22.20;67.80;;;;;;5079151;28;19924;-61
2021/09/12 09:06:32;;;;;;;;;;;22.20;67.60;;;;;;5084962;28;19911;-61
2021/09/12 09:08:59;;;;;;;;;;;22.20;67.60;;;;;;5090467;27;21583;-61
2021/09/12 09:11:31;;;;;;;;;;;22.30;67.20;;;;;;4164292;28;10000960;-61
2021/09/12 09:13:57;;;;;;;;;;;22.30;67.20;;;;;;4993056;28;19979;-60
2021/09/12 09:16:27;;;;;;;;;;;22.30;67.60;;;;;;4980843;28;19918;-59
2021/09/12 09:19:02;;;;;;;;;;;22.30;67.50;;;;;;4987042;28;19913;-60
2021/09/12 09:21:29;;;;;;;;;;;22.30;68.60;;;;;;4979245;28;20641;-60
2021/09/12 09:24:08;;;;;;;;;;;22.30;67.70;;;;;;4993585;28;25453;-59
2021/09/12 09:26:37;;;;;;;;;;;22.30;68.00;;;;;;4982647;28;19914;-61
2021/09/12 09:29:03;;;;;;;;;;;22.30;68.40;;;;;;4998541;28;19983;-60
2021/09/12 09:31:28;;;;;;;;;;;22.30;68.20;;;;;;4993320;28;19918;-60
2021/09/12 09:33:54;;;;;;;;;;;22.30;68.20;;;;;;4995919;28;19921;-61
2021/09/12 09:36:19;;;;;;;;;;;22.30;68.50;;;;;;4992605;28;20307;-61
2021/09/12 09:38:45;;;;;;;;;;;22.30;68.80;;;;;;4999635;28;19949;-60
2021/09/12 09:41:12;;;;;;;;;;;22.30;68.50;;;;;;4986183;28;19922;-61
2021/09/12 09:43:38;;;;;;;;;;;22.30;68.20;;;;;;4995902;28;19917;-60
2021/09/12 09:46:03;;;;;;;;;;;22.20;68.20;;;;;;4996179;28;20301;-61
2021/09/12 09:48:35;;;;;;;;;;;22.30;68.00;;;;;;4997497;28;19929;-60
2021/09/12 09:51:03;;;;;;;;;;;22.30;68.00;;;;;;4984265;28;19914;-61
2021/09/12 09:53:33;;;;;;;;;;;22.30;67.80;;;;;;4982828;28;19971;-60
2021/09/12 09:55:58;;;;;;;;;;;22.30;68.10;;;;;;4978674;28;19915;-59
2021/09/12 09:58:23;;;;;;;;;;;22.30;68.00;;;;;;4978613;28;19924;-60
2021/09/12 10:00:49;;;;;;;;;;;22.30;67.40;;;;;;4961500;28;19914;-59
2021/09/12 10:03:17;;;;;;;;;;;22.30;67.30;;;;;;4986179;28;19926;-60
2021/09/12 10:05:42;;;;;;;;;;;22.30;66.90;;;;;;4986436;28;19914;-59
2021/09/12 10:08:08;;;;;;;;;;;22.30;67.00;;;;;;4982898;28;19921;-60
2021/09/12 10:10:33;;;;;;;;;;;22.30;67.10;;;;;;4978573;28;19914;-61
2021/09/12 10:13:02;;;;;;;;;;;22.30;67.30;;;;;;4982797;28;19925;-57
2021/09/12 10:15:29;;;;;;;;;;;22.30;67.40;;;;;;4984926;28;20004;-61
2021/09/12 10:17:54;;;;;;;;;;;22.30;67.30;;;;;;4994256;28;20298;-60
2021/09/12 10:20:24;;;;;;;;;;;22.30;67.30;;;;;;4999638;28;19914;-60
2021/09/12 10:22:52;;;;;;;;;;;22.30;66.30;;;;;;4985419;28;19926;-60
2021/09/12 10:25:18;;;;;;;;;;;22.30;66.60;;;;;;4990150;28;19917;-60
2021/09/12 10:27:44;;;;;;;;;;;22.30;66.80;;;;;;4993422;28;19921;-60
2021/09/12 10:30:28;;;;;;;;;;;22.30;66.90;;;;;;4998781;28;19956;-60
2021/09/12 10:33:20;;;;;;;;;;;22.30;67.00;;;;;;4986109;28;19943;-61
2021/09/12 10:35:59;;;;;;;;;;;22.30;67.50;;;;;;4992428;28;20540;-60
2021/09/12 10:38:40;;;;;;;;;;;22.30;67.70;;;;;;4981613;28;19922;-61
2021/09/12 10:41:06;;;;;;;;;;;22.30;67.50;;;;;;4981350;28;19984;-60
2021/09/12 10:43:31;;;;;;;;;;;22.30;67.70;;;;;;4994424;28;19921;-60
2021/09/12 10:46:09;;;;;;;;;;;22.30;67.60;;;;;;5001476;28;19918;-61
2021/09/12 10:48:34;;;;;;;;;;;22.30;67.70;;;;;;5000014;28;19949;-59
2021/09/12 10:51:00;;;;;;;;;;;22.30;67.70;;;;;;4987923;28;20736;-59
2021/09/12 10:56:15;;;;;;;;;;;22.30;67.40;;;;;;4987604;28;19917;-60
2021/09/12 10:58:41;;;;;;;;;;;22.30;68.00;;;;;;4999943;28;19917;-60
2021/09/12 11:01:07;;;;;;;;;;;22.30;67.10;;;;;;4999837;28;19921;-60
2021/09/12 11:03:33;;;;;;;;;;;22.30;66.90;;;;;;4999847;28;19917;-60
2021/09/12 11:05:58;;;;;;;;;;;22.30;67.00;;;;;;4988454;28;19935;-61
2021/09/12 11:08:36;;;;;;;;;;;22.20;66.80;;;;;;4983165;28;20300;-61
2021/09/12 11:11:02;;;;;;;;;;;22.30;65.80;;;;;;4999246;28;20386;-60
2021/09/12 11:13:27;;;;;;;;;;;22.30;66.30;;;;;;5001232;28;19921;-60
2021/09/12 11:15:54;;;;;;;;;;;22.20;65.80;;;;;;4991583;28;20432;-60
2021/09/12 11:18:20;;;;;;;;;;;22.20;65.80;;;;;;4983331;28;19922;-60
2021/09/12 11:20:46;;;;;;;;;;;22.20;65.90;;;;;;4990162;28;20374;-58
2021/09/12 11:23:25;;;;;;;;;;;22.30;66.10;;;;;;4989520;28;20368;-58
2021/09/12 11:25:54;;;;;;;;;;;22.20;66.10;;;;;;4982492;28;19914;-59
2021/09/12 11:28:19;;;;;;;;;;;22.30;66.20;;;;;;4996897;28;20007;-59
2021/09/12 11:30:48;;;;;;;;;;;22.30;66.50;;;;;;4987683;28;20579;-58
2021/09/12 11:33:13;;;;;;;;;;;22.30;66.50;;;;;;4984779;28;19918;-59
2021/09/12 11:35:39;;;;;;;;;;;22.30;66.80;;;;;;4983038;28;19917;-60
2021/09/12 11:38:09;;;;;;;;;;;22.30;67.00;;;;;;4991186;28;19914;-60
2021/09/12 11:40:34;;;;;;;;;;;22.30;67.10;;;;;;4996884;28;20016;-60
2021/09/12 11:43:15;;;;;;;;;;;22.30;67.00;;;;;;4992073;28;20008;-58
2021/09/12 11:45:41;;;;;;;;;;;22.30;67.00;;;;;;4990188;28;19914;-59
2021/09/12 11:48:07;;;;;;;;;;;22.30;66.30;;;;;;5010400;23;19936;-63
2021/09/12 11:50:32;;;;;;;;;;;22.30;66.10;;;;;;5022724;28;19920;-61
2021/09/12 11:52:58;;;;;;;;;;;22.30;65.00;;;;;;5023366;28;19913;-62
2021/09/12 11:55:24;;;;;;;;;;;22.30;65.20;;;;;;5013425;28;19917;-61
2021/09/12 11:58:06;;;;;;;;;;;22.30;65.10;;;;;;5018962;28;19913;-63
2021/09/12 12:00:32;;;;;;;;;;;22.30;65.90;;;;;;5032759;28;19991;-62
2021/09/12 12:02:57;;;;;;;;;;;22.30;65.60;;;;;;5035663;28;20070;-61
2021/09/12 12:05:23;;;;;;;;;;;22.30;66.00;;;;;;5025834;28;19913;-61
2021/09/12 12:07:51;;;;;;;;;;;22.30;66.50;;;;;;5016276;28;19964;-61
2021/09/12 12:10:33;;;;;;;;;;;22.30;67.00;;;;;;5033221;28;19913;-61
2021/09/12 12:12:58;;;;;;;;;;;22.30;67.20;;;;;;5036153;28;19917;-63
2021/09/12 12:15:31;;;;;;;;;;;22.30;67.50;;;;;;5028616;28;19985;-64
2021/09/12 12:17:56;;;;;;;;;;;22.30;68.10;;;;;;5028661;28;20004;-61
2021/09/12 12:20:22;;;;;;;;;;;22.30;68.40;;;;;;5031116;28;19917;-63
2021/09/12 12:22:47;;;;;;;;;;;22.30;68.10;;;;;;5029776;28;20367;-63
2021/09/12 12:25:13;;;;;;;;;;;22.30;67.80;;;;;;5035844;28;20002;-62
2021/09/12 12:27:38;;;;;;;;;;;22.30;67.40;;;;;;5023811;28;19923;-63
2021/09/12 12:30:04;;;;;;;;;;;22.30;67.00;;;;;;5030966;28;19959;-63
2021/09/12 12:32:30;;;;;;;;;;;22.30;65.60;;;;;;5025059;28;19914;-61
2021/09/12 12:34:56;;;;;;;;;;;22.30;65.70;;;;;;5037200;28;19944;-63
2021/09/12 12:37:23;;;;;;;;;;;22.30;65.40;;;;;;5032528;28;19919;-61
2021/09/12 12:40:01;;;;;;;;;;;22.30;64.90;;;;;;5028452;28;20442;-61
2021/09/12 12:42:34;;;;;;;;;;;22.30;65.10;;;;;;5025797;28;20008;-61
2021/09/12 12:45:02;;;;;;;;;;;22.30;65.10;;;;;;5036998;28;19919;-62
2021/09/12 12:47:28;;;;;;;;;;;22.30;65.10;;;;;;5031454;28;19956;-62
2021/09/12 12:49:57;;;;;;;;;;;22.30;65.00;;;;;;5030699;28;19917;-62
2021/09/12 12:52:24;;;;;;;;;;;22.30;64.70;;;;;;5041154;28;19921;-61
2021/09/12 12:54:51;;;;;;;;;;;22.30;63.10;;;;;;5029381;28;19952;-62
2021/09/12 12:57:17;;;;;;;;;;;22.30;63.30;;;;;;5038914;28;19929;-62
2021/09/12 12:59:46;;;;;;;;;;;22.30;63.40;;;;;;5039750;28;19924;-61
2021/09/12 13:02:12;;;;;;;;;;;22.30;63.10;;;;;;5032342;28;19932;-62
2021/09/12 13:04:37;;;;;;;;;;;22.30;63.00;;;;;;5032610;28;19917;-63
2021/09/12 13:07:03;;;;;;;;;;;22.20;63.20;;;;;;5044822;28;19912;-63
2021/09/12 13:09:29;;;;;;;;;;;22.30;63.20;;;;;;5035449;28;20322;-64
2021/09/12 13:11:54;;;;;;;;;;;22.30;63.00;;;;;;5036632;28;19917;-62
2021/09/12 13:14:19;;;;;;;;;;;22.30;63.00;;;;;;5034757;28;20406;-61
2021/09/12 13:16:45;;;;;;;;;;;22.30;63.00;;;;;;5040259;28;20112;-63
2021/09/12 13:19:10;;;;;;;;;;;22.30;63.00;;;;;;5045058;28;19913;-62
2021/09/12 13:21:36;;;;;;;;;;;22.30;63.40;;;;;;5044050;28;19913;-61
2021/09/12 13:24:01;;;;;;;;;;;22.30;63.30;;;;;;5043915;28;19985;-65
2021/09/12 13:26:27;;;;;;;;;;;22.30;62.90;;;;;;5027289;28;20286;-63
2021/09/12 13:28:52;;;;;;;;;;;22.30;63.00;;;;;;5032602;28;19901;-61
2021/09/12 13:31:18;;;;;;;;;;;22.30;62.50;;;;;;5034980;28;19912;-62
2021/09/12 13:33:48;;;;;;;;;;;22.30;61.70;;;;;;5044397;28;19964;-61
2021/09/12 13:36:13;;;;;;;;;;;22.30;62.40;;;;;;5037753;28;20290;-63
2021/09/12 13:38:38;;;;;;;;;;;22.30;62.10;;;;;;5042792;28;19923;-60
2021/09/12 13:41:05;;;;;;;;;;;22.30;62.60;;;;;;5033382;28;20290;-61
2021/09/12 13:43:31;;;;;;;;;;;22.30;62.80;;;;;;5036096;28;20050;-68
2021/09/12 13:45:57;;;;;;;;;;;22.30;63.00;;;;;;5036797;28;20401;-63
2021/09/12 13:48:23;;;;;;;;;;;22.30;63.20;;;;;;5030610;28;19963;-63
2021/09/12 13:50:48;;;;;;;;;;;22.30;63.70;;;;;;5023167;28;19916;-62
2021/09/12 13:53:14;;;;;;;;;;;22.30;63.20;;;;;;5034351;28;19940;-62
2021/09/12 13:55:39;;;;;;;;;;;22.30;63.00;;;;;;5033009;28;20345;-62
2021/09/12 13:58:05;;;;;;;;;;;22.30;63.20;;;;;;5030498;28;19913;-63
2021/09/12 14:00:30;;;;;;;;;;;22.30;63.40;;;;;;5038982;28;19913;-62
2021/09/12 14:02:56;;;;;;;;;;;22.30;63.20;;;;;;5032031;28;19931;-63
2021/09/12 14:05:21;;;;;;;;;;;22.40;63.30;;;;;;5032632;28;19921;-62
2021/09/12 14:07:47;;;;;;;;;;;22.30;63.40;;;;;;5034651;28;19917;-63
2021/09/12 14:10:12;;;;;;;;;;;22.40;63.70;;;;;;5036649;28;19913;-62
2021/09/12 14:12:38;;;;;;;;;;;22.30;63.60;;;;;;5023233;28;19914;-62